Time;durP1;ratioP1;P1;durP2;ratioP2;P2;SDS_P1;SDS_P2;PMS_P1;PMS_P2;Temp;Humidity;BMP_temperature;BMP_pressure;BME280_temperature;BME280_humidity;BME280_pressure;Samples;Min_cycle;Max_cycle;Signal;HPM_P1;HPM_P2
2023/09/06 00:00:58;;;;;;;;;;;;;;;15.52;100.00;101693.66;5004707;28;19921;-74
2023/09/06 00:03:27;;;;;;;;;;;;;;;15.46;100.00;101680.88;5000403;28;19916;-74
2023/09/06 00:05:52;;;;;;;;;;;;;;;15.46;100.00;101680.88;4990937;28;20320;-74
2023/09/06 00:08:17;;;;;;;;;;;;;;;15.45;100.00;101684.56;4999263;28;19925;-74
2023/09/06 00:10:43;;;;;;;;;;;;;;;15.42;100.00;101682.22;5004021;28;20269;-74
2023/09/06 00:13:09;;;;;;;;;;;;;;;15.37;100.00;101684.59;4996073;28;19968;-74
2023/09/06 00:15:35;;;;;;;;;;;;;;;15.33;100.00;101677.88;5006093;28;20007;-74
2023/09/06 00:18:00;;;;;;;;;;;;;;;15.28;100.00;101674.84;4987145;28;20071;-74
2023/09/06 00:20:25;;;;;;;;;;;;;;;15.26;100.00;101676.88;5000751;28;19918;-74
2023/09/06 00:22:58;;;;;;;;;;;;;;;15.29;100.00;101682.75;5008635;28;19921;-74
2023/09/06 00:25:25;;;;;;;;;;;;;;;15.22;100.00;101675.53;4984043;28;19913;-74
2023/09/06 00:27:50;;;;;;;;;;;;;;;15.18;100.00;101675.88;4990582;28;20652;-74
2023/09/06 00:30:18;;;;;;;;;;;;;;;15.16;100.00;101680.59;4992085;28;20002;-74
2023/09/06 00:32:45;;;;;;;;;;;;;;;15.14;100.00;101669.16;4998906;28;19913;-74
2023/09/06 00:35:10;;;;;;;;;;;;;;;15.13;100.00;101680.94;4987610;28;19913;-74
2023/09/06 00:37:36;;;;;;;;;;;;;;;15.11;100.00;101682.13;4994859;28;19928;-74
2023/09/06 00:40:12;;;;;;;;;;;;;;;15.08;100.00;101675.22;4996787;28;19924;-74
2023/09/06 00:42:38;;;;;;;;;;;;;;;15.06;100.00;101682.63;5006762;28;19924;-74
2023/09/06 00:45:03;;;;;;;;;;;;;;;14.99;100.00;101678.94;4999358;28;19911;-74
2023/09/06 00:47:29;;;;;;;;;;;;;;;14.96;100.00;101671.19;4975657;28;19914;-74
2023/09/06 00:49:55;;;;;;;;;;;;;;;15.01;100.00;101681.44;4988931;28;19960;-74
2023/09/06 00:52:20;;;;;;;;;;;;;;;15.02;100.00;101691.19;4990553;28;19921;-74
2023/09/06 00:54:46;;;;;;;;;;;;;;;15.02;100.00;101683.13;4983137;28;19921;-74
2023/09/06 00:57:12;;;;;;;;;;;;;;;15.12;100.00;101706.13;4997129;28;19964;-74
2023/09/06 00:59:38;;;;;;;;;;;;;;;15.17;100.00;101709.19;4968678;28;19926;-74
2023/09/06 01:02:03;;;;;;;;;;;;;;;15.17;100.00;101711.88;4989457;28;19972;-74
2023/09/06 01:04:29;;;;;;;;;;;;;;;15.15;100.00;101708.50;5006338;28;20019;-74
2023/09/06 01:06:57;;;;;;;;;;;;;;;15.15;100.00;101713.88;5007634;28;19914;-74
2023/09/06 01:09:23;;;;;;;;;;;;;;;15.12;100.00;101710.69;4993124;28;19920;-73
2023/09/06 01:11:48;;;;;;;;;;;;;;;15.08;100.00;101704.81;5009039;28;19913;-73
2023/09/06 01:14:16;;;;;;;;;;;;;;;15.05;100.00;101707.81;4992574;28;19920;-74
2023/09/06 01:16:44;;;;;;;;;;;;;;;14.96;100.00;101703.44;4981580;28;20005;-74
2023/09/06 01:19:14;;;;;;;;;;;;;;;14.93;100.00;101696.56;4986836;28;19917;-73
2023/09/06 01:22:09;;;;;;;;;;;;;;;14.96;100.00;101703.44;4987640;28;19917;-74
2023/09/06 01:24:34;;;;;;;;;;;;;;;14.98;100.00;101706.81;4982237;28;19913;-74
2023/09/06 01:27:00;;;;;;;;;;;;;;;15.01;100.00;101709.19;5006369;28;19917;-74
2023/09/06 01:29:28;;;;;;;;;;;;;;;15.15;100.00;101721.13;5011323;28;19925;-74
2023/09/06 01:31:53;;;;;;;;;;;;;;;15.22;100.00;101713.19;5013835;28;19914;-74
2023/09/06 01:34:18;;;;;;;;;;;;;;;15.20;100.00;101702.63;4994816;28;19921;-73
2023/09/06 01:36:43;;;;;;;;;;;;;;;15.10;100.00;101699.25;5006705;28;19914;-74
2023/09/06 01:39:09;;;;;;;;;;;;;;;15.19;100.00;101711.69;5001037;28;19924;-74
2023/09/06 01:41:35;;;;;;;;;;;;;;;15.25;100.00;101712.88;5003650;28;20495;-74
2023/09/06 01:44:00;;;;;;;;;;;;;;;15.27;100.00;101706.31;4995156;28;19925;-74
2023/09/06 01:46:26;;;;;;;;;;;;;;;15.25;100.00;101700.25;4996198;28;20312;-74
2023/09/06 01:48:51;;;;;;;;;;;;;;;15.24;100.00;101701.28;4991125;28;19917;-74
2023/09/06 01:51:16;;;;;;;;;;;;;;;15.25;100.00;101702.09;4997887;28;20435;-74
2023/09/06 01:53:42;;;;;;;;;;;;;;;15.22;100.00;101694.34;4992034;28;20008;-74
2023/09/06 01:56:07;;;;;;;;;;;;;;;15.19;100.00;101698.22;4975253;28;20423;-73
2023/09/06 01:58:33;;;;;;;;;;;;;;;15.06;100.00;101688.00;5007943;28;20403;-74
2023/09/06 02:01:00;;;;;;;;;;;;;;;14.92;100.00;101686.00;5007249;28;19916;-73
2023/09/06 02:03:27;;;;;;;;;;;;;;;14.87;100.00;101688.34;4994539;28;20004;-74
2023/09/06 02:05:52;;;;;;;;;;;;;;;14.85;100.00;101701.13;5000945;28;19921;-74
2023/09/06 02:08:17;;;;;;;;;;;;;;;14.83;100.00;101698.59;4994758;28;19918;-73
2023/09/06 02:10:43;;;;;;;;;;;;;;;14.87;100.00;101704.47;4990836;28;19913;-74
2023/09/06 02:13:08;;;;;;;;;;;;;;;14.83;100.00;101703.13;4991105;28;19914;-73
2023/09/06 02:15:33;;;;;;;;;;;;;;;14.84;100.00;101699.41;4984848;28;19964;-74
2023/09/06 02:17:59;;;;;;;;;;;;;;;14.75;100.00;101696.75;4989745;28;20015;-74
2023/09/06 02:20:25;;;;;;;;;;;;;;;14.72;100.00;101693.53;4993128;28;20285;-74
2023/09/06 02:22:57;;;;;;;;;;;;;;;14.66;100.00;101686.97;4996343;28;20714;-74
2023/09/06 02:25:29;;;;;;;;;;;;;;;14.65;100.00;101687.13;4988079;28;20284;-74
2023/09/06 02:27:55;;;;;;;;;;;;;;;14.60;100.00;101682.25;5006494;28;19945;-73
2023/09/06 02:30:21;;;;;;;;;;;;;;;14.56;100.00;101697.91;4990804;28;20500;-74
2023/09/06 02:32:47;;;;;;;;;;;;;;;14.51;100.00;101689.44;4996491;28;19936;-74
2023/09/06 02:35:12;;;;;;;;;;;;;;;14.47;100.00;101690.78;4990689;28;19913;-74
2023/09/06 02:37:38;;;;;;;;;;;;;;;14.45;100.00;101686.59;4988904;28;19913;-74
2023/09/06 02:40:12;;;;;;;;;;;;;;;14.44;100.00;101683.03;5006362;28;19920;-73
2023/09/06 02:42:38;;;;;;;;;;;;;;;14.44;100.00;101687.59;4994143;28;19960;-74
2023/09/06 02:45:05;;;;;;;;;;;;;;;14.39;100.00;101680.00;4999517;28;19956;-74
2023/09/06 02:47:34;;;;;;;;;;;;;;;14.36;100.00;101685.72;4999102;28;19953;-74
2023/09/06 02:50:05;;;;;;;;;;;;;;;14.31;100.00;101675.47;5008001;28;20008;-74
2023/09/06 02:52:35;;;;;;;;;;;;;;;14.27;100.00;101676.78;4996871;28;19960;-74
2023/09/06 02:55:05;;;;;;;;;;;;;;;14.28;100.00;101686.56;4993230;28;19918;-73
2023/09/06 02:57:31;;;;;;;;;;;;;;;14.24;100.00;101690.56;4993265;28;20012;-74
2023/09/06 02:59:57;;;;;;;;;;;;;;;14.25;100.00;101694.91;5001311;28;20381;-73
2023/09/06 03:02:22;;;;;;;;;;;;;;;14.24;100.00;101698.63;4968654;28;20011;-74
2023/09/06 03:04:57;;;;;;;;;;;;;;;14.20;100.00;101691.88;5006899;28;19913;-74
2023/09/06 03:07:23;;;;;;;;;;;;;;;14.23;100.00;101702.28;4985196;28;20008;-74
2023/09/06 03:09:48;;;;;;;;;;;;;;;14.15;100.00;101694.22;5006382;28;20007;-74
2023/09/06 03:12:14;;;;;;;;;;;;;;;14.09;100.00;101694.88;4991352;28;19968;-74
2023/09/06 03:14:44;;;;;;;;;;;;;;;14.12;100.00;101698.09;5010171;28;19929;-73
2023/09/06 03:17:13;;;;;;;;;;;;;;;14.08;100.00;101703.94;4999385;28;19913;-74
2023/09/06 03:19:41;;;;;;;;;;;;;;;14.04;100.00;101702.56;4996697;28;19968;-73
2023/09/06 03:22:09;;;;;;;;;;;;;;;14.02;100.00;101707.25;5009584;28;19917;-74
2023/09/06 03:24:34;;;;;;;;;;;;;;;14.04;100.00;101699.88;4991027;28;20308;-73
2023/09/06 03:26:59;;;;;;;;;;;;;;;14.03;100.00;101708.97;5006945;28;19913;-74
2023/09/06 03:29:31;;;;;;;;;;;;;;;14.01;100.00;101708.28;5002411;28;19917;-74
2023/09/06 03:31:57;;;;;;;;;;;;;;;13.97;100.00;101707.75;5004927;28;19968;-74
2023/09/06 03:34:22;;;;;;;;;;;;;;;14.03;100.00;101717.84;4985310;28;19918;-74
2023/09/06 03:36:51;;;;;;;;;;;;;;;14.04;100.00;101726.75;4993293;28;20340;-74
2023/09/06 03:39:19;;;;;;;;;;;;;;;13.97;100.00;101720.34;4989799;28;19958;-74
2023/09/06 03:41:46;;;;;;;;;;;;;;;13.97;100.00;101712.28;4982107;28;19914;-74
2023/09/06 03:44:12;;;;;;;;;;;;;;;13.91;100.00;101706.56;4996156;28;19949;-74
2023/09/06 03:46:37;;;;;;;;;;;;;;;13.91;100.00;101709.25;4987789;28;20360;-73
2023/09/06 03:49:05;;;;;;;;;;;;;;;14.01;100.00;101702.91;4989922;28;20345;-74
2023/09/06 03:51:31;;;;;;;;;;;;;;;13.92;100.00;101702.03;5009980;28;19976;-73
2023/09/06 03:53:57;;;;;;;;;;;;;;;13.84;100.00;101699.31;4988016;28;19913;-73
2023/09/06 03:56:22;;;;;;;;;;;;;;;13.84;100.00;101702.00;4984909;28;20005;-73
2023/09/06 03:58:49;;;;;;;;;;;;;;;13.84;100.00;101708.19;4990697;28;19918;-73
2023/09/06 04:01:15;;;;;;;;;;;;;;;13.84;100.00;101713.56;4977773;28;19914;-73
2023/09/06 04:03:41;;;;;;;;;;;;;;;13.85;100.00;101720.59;5008324;28;19921;-73
2023/09/06 04:06:07;;;;;;;;;;;;;;;13.81;100.00;101716.56;4999965;28;20364;-73
2023/09/06 04:08:33;;;;;;;;;;;;;;;13.81;100.00;101711.19;5008814;28;20288;-73
2023/09/06 04:11:00;;;;;;;;;;;;;;;13.83;100.00;101719.09;5012350;28;19972;-73
2023/09/06 04:13:26;;;;;;;;;;;;;;;13.81;100.00;101719.22;4992314;28;19918;-73
2023/09/06 04:15:52;;;;;;;;;;;;;;;13.76;100.00;101710.81;4995527;28;19921;-74
2023/09/06 04:18:18;;;;;;;;;;;;;;;13.79;100.00;101721.25;4992305;28;19972;-73
2023/09/06 04:20:46;;;;;;;;;;;;;;;13.81;100.00;101713.88;4999583;28;19910;-73
2023/09/06 04:23:16;;;;;;;;;;;;;;;13.77;100.00;101720.59;4991082;28;20487;-73
2023/09/06 04:25:46;;;;;;;;;;;;;;;13.76;100.00;101723.41;5006560;28;19917;-74
2023/09/06 04:28:21;;;;;;;;;;;;;;;13.73;100.00;101722.72;4991980;28;19997;-73
2023/09/06 04:30:48;;;;;;;;;;;;;;;13.71;100.00;101718.53;4999124;28;19917;-73
2023/09/06 04:33:16;;;;;;;;;;;;;;;13.76;100.00;101712.69;4999159;28;20468;-74
2023/09/06 04:35:50;;;;;;;;;;;;;;;13.84;100.00;101731.53;4998601;28;19924;-74
2023/09/06 04:38:19;;;;;;;;;;;;;;;13.86;100.00;101729.50;4983285;28;19917;-73
2023/09/06 04:40:46;;;;;;;;;;;;;;;13.86;100.00;101722.31;4995702;28;20005;-73
2023/09/06 04:43:16;;;;;;;;;;;;;;;13.86;100.00;101727.69;4981510;28;20568;-74
2023/09/06 04:45:42;;;;;;;;;;;;;;;13.82;100.00;101725.47;5007149;28;19914;-73
2023/09/06 04:48:09;;;;;;;;;;;;;;;13.80;100.00;101722.94;5005458;28;19917;-73
2023/09/06 04:50:37;;;;;;;;;;;;;;;13.89;100.00;101732.72;5003364;28;20454;-73
2023/09/06 04:53:03;;;;;;;;;;;;;;;13.97;100.00;101736.44;5013762;28;19921;-73
2023/09/06 04:55:33;;;;;;;;;;;;;;;14.01;100.00;101740.50;5001764;28;19914;-73
2023/09/06 04:58:03;;;;;;;;;;;;;;;14.07;100.00;101731.78;4987589;28;19921;-73
2023/09/06 05:00:35;;;;;;;;;;;;;;;14.09;100.00;101722.59;4995410;28;19910;-73
2023/09/06 05:03:01;;;;;;;;;;;;;;;14.18;100.00;101725.28;4985222;28;20292;-73
2023/09/06 05:05:27;;;;;;;;;;;;;;;14.19;100.00;101722.44;4998517;28;19913;-73
2023/09/06 05:07:52;;;;;;;;;;;;;;;14.23;100.00;101721.09;4990044;28;19914;-73
2023/09/06 05:10:18;;;;;;;;;;;;;;;14.27;100.00;101724.31;4999723;28;20435;-73
2023/09/06 05:12:43;;;;;;;;;;;;;;;14.34;100.00;101728.84;5008090;28;19918;-73
2023/09/06 05:15:10;;;;;;;;;;;;;;;14.39;100.00;101744.50;5004057;28;20814;-74
2023/09/06 05:17:35;;;;;;;;;;;;;;;14.44;100.00;101735.94;5000207;28;19918;-73
2023/09/06 05:20:19;;;;;;;;;;;;;;;14.51;100.00;101729.75;5005001;28;20305;-73
2023/09/06 05:22:45;;;;;;;;;;;;;;;14.67;100.00;101739.72;4991648;28;20572;-73
2023/09/06 05:25:11;;;;;;;;;;;;;;;14.85;100.00;101746.81;5000346;28;19999;-73
2023/09/06 05:27:36;;;;;;;;;;;;;;;14.92;100.00;101754.03;5016198;28;19913;-73
2023/09/06 05:30:02;;;;;;;;;;;;;;;15.01;100.00;101751.34;4999903;28;19914;-73
2023/09/06 05:32:31;;;;;;;;;;;;;;;15.05;100.00;101756.22;5000930;28;19965;-73
2023/09/06 05:34:56;;;;;;;;;;;;;;;15.23;100.00;101766.81;5007135;28;19914;-73
2023/09/06 05:37:24;;;;;;;;;;;;;;;15.26;100.00;101776.41;4992805;28;19913;-73
2023/09/06 05:39:50;;;;;;;;;;;;;;;15.31;100.00;101774.91;4970317;28;19913;-73
2023/09/06 05:42:16;;;;;;;;;;;;;;;15.24;100.00;101771.22;5013689;23;19924;-71
2023/09/06 05:44:42;;;;;;;;;;;;;;;15.41;100.00;101790.88;5000456;28;19960;-71
2023/09/06 05:47:08;;;;;;;;;;;;;;;15.56;100.00;101785.66;5000572;28;19927;-72
2023/09/06 05:49:33;;;;;;;;;;;;;;;15.81;100.00;101797.25;5003490;28;20867;-71
2023/09/06 05:51:59;;;;;;;;;;;;;;;15.95;100.00;101788.47;5005593;28;19956;-72
2023/09/06 05:54:24;;;;;;;;;;;;;;;16.47;100.00;101805.97;5014736;28;19920;-73
2023/09/06 05:56:50;;;;;;;;;;;;;;;18.17;100.00;101840.94;5014133;28;19917;-73
2023/09/06 05:59:16;;;;;;;;;;;;;;;19.72;100.00;101803.56;5011682;28;19913;-72
2023/09/06 06:01:42;;;;;;;;;;;;;;;20.97;100.00;101741.91;4999898;28;19914;-73
2023/09/06 06:04:07;;;;;;;;;;;;;;;22.03;100.00;101645.84;5003404;28;19975;-72
2023/09/06 06:06:34;;;;;;;;;;;;;;;23.07;100.00;101582.94;5000590;28;20449;-72
2023/09/06 06:09:00;;;;;;;;;;;;;;;23.81;100.00;101387.44;5002412;28;19918;-72
2023/09/06 06:11:26;;;;;;;;;;;;;;;24.33;100.00;101215.69;5018117;28;19913;-72
2023/09/06 06:13:51;;;;;;;;;;;;;;;24.68;100.00;101014.63;5017252;28;19909;-74
2023/09/06 06:16:16;;;;;;;;;;;;;;;25.05;100.00;100840.06;5019685;28;19913;-73
2023/09/06 06:18:42;;;;;;;;;;;;;;;25.48;100.00;100657.97;5018444;28;19923;-73
2023/09/06 06:21:07;;;;;;;;;;;;;;;25.26;100.00;100462.25;5020028;28;19916;-72
2023/09/06 06:23:32;;;;;;;;;;;;;;;25.28;100.00;100375.34;5000751;28;20235;-73
2023/09/06 06:25:57;;;;;;;;;;;;;;;25.36;100.00;100431.41;5015569;28;19913;-72
2023/09/06 06:28:23;;;;;;;;;;;;;;;25.55;100.00;100415.31;5008093;28;20284;-72
2023/09/06 06:30:48;;;;;;;;;;;;;;;25.52;100.00;100347.53;5018008;28;20411;-72
2023/09/06 06:33:13;;;;;;;;;;;;;;;25.75;100.00;100389.09;5021197;28;19916;-72
2023/09/06 06:35:39;;;;;;;;;;;;;;;25.40;100.00;100446.16;5017027;28;20015;-73
2023/09/06 06:38:04;;;;;;;;;;;;;;;25.69;100.00;100435.56;5016540;28;19917;-74
2023/09/06 06:40:29;;;;;;;;;;;;;;;25.55;100.00;100336.06;5000610;28;19919;-74
2023/09/06 06:42:55;;;;;;;;;;;;;;;25.81;100.00;100432.56;5015055;28;19963;-72
2023/09/06 06:45:20;;;;;;;;;;;;;;;26.05;97.31;100360.97;5019021;28;19916;-72
2023/09/06 06:47:46;;;;;;;;;;;;;;;26.32;94.30;100284.03;5014138;28;19917;-72
2023/09/06 06:50:11;;;;;;;;;;;;;;;26.13;93.79;100283.81;5017411;28;19909;-72
2023/09/06 06:52:37;;;;;;;;;;;;;;;25.39;93.53;100157.59;5015623;28;19913;-72
2023/09/06 06:55:03;;;;;;;;;;;;;;;25.41;94.51;100272.91;4999279;28;19914;-72
2023/09/06 06:57:29;;;;;;;;;;;;;;;25.46;96.32;100490.72;5019161;28;20434;-74
2023/09/06 06:59:54;;;;;;;;;;;;;;;25.44;97.63;100553.81;5018446;28;19917;-73
2023/09/06 07:02:20;;;;;;;;;;;;;;;25.85;95.93;100581.34;5020197;28;19956;-70
2023/09/06 07:04:45;;;;;;;;;;;;;;;26.11;93.59;100486.53;4998017;28;19913;-72
2023/09/06 07:07:10;;;;;;;;;;;;;;;25.81;96.17;100615.78;5019139;28;19916;-71
2023/09/06 07:09:36;;;;;;;;;;;;;;;25.95;94.67;100553.22;5015724;28;19909;-72
2023/09/06 07:12:01;;;;;;;;;;;;;;;25.67;93.70;100451.41;5019945;28;19913;-72
2023/09/06 07:14:26;;;;;;;;;;;;;;;24.99;98.33;100649.97;5018152;28;19916;-71
2023/09/06 07:16:51;;;;;;;;;;;;;;;25.05;97.77;100657.09;4996029;28;19964;-71
2023/09/06 07:19:17;;;;;;;;;;;;;;;25.51;97.08;100700.34;5002269;28;19917;-72
2023/09/06 07:21:42;;;;;;;;;;;;;;;25.71;93.96;100552.84;5014272;28;20435;-71
2023/09/06 07:24:09;;;;;;;;;;;;;;;26.08;92.31;100500.75;5017355;28;19910;-72
2023/09/06 07:26:35;;;;;;;;;;;;;;;25.95;89.90;100345.38;5017630;28;19931;-72
2023/09/06 07:29:00;;;;;;;;;;;;;;;25.96;91.36;100486.47;5001297;28;19909;-71
2023/09/06 07:31:25;;;;;;;;;;;;;;;26.24;92.19;100611.00;5019170;28;19908;-72
2023/09/06 07:33:51;;;;;;;;;;;;;;;26.00;92.68;100609.84;4997342;28;19913;-72
2023/09/06 07:36:17;;;;;;;;;;;;;;;26.24;90.91;100508.94;4997497;28;19992;-71
2023/09/06 07:38:43;;;;;;;;;;;;;;;26.15;91.71;100579.78;4997694;28;20012;-72
2023/09/06 07:41:08;;;;;;;;;;;;;;;26.22;90.52;100498.31;5017997;28;20523;-71
2023/09/06 07:43:34;;;;;;;;;;;;;;;26.15;90.08;100469.56;4997489;28;20002;-71
2023/09/06 07:46:00;;;;;;;;;;;;;;;26.15;93.59;100729.44;5016513;28;19917;-71
2023/09/06 07:48:26;;;;;;;;;;;;;;;26.14;93.95;100730.56;5017169;28;19909;-72
2023/09/06 07:50:52;;;;;;;;;;;;;;;26.61;93.05;100790.69;4995796;28;20372;-72
2023/09/06 07:53:17;;;;;;;;;;;;;;;26.28;91.23;100529.22;5019143;28;19913;-71
2023/09/06 07:55:43;;;;;;;;;;;;;;;25.83;93.77;100620.97;5015770;28;20004;-72
2023/09/06 07:58:08;;;;;;;;;;;;;;;25.72;97.04;100835.28;5015596;28;19913;-71
2023/09/06 08:00:36;;;;;;;;;;;;;;;25.41;97.42;100744.84;5019711;28;19983;-73
2023/09/06 08:03:01;;;;;;;;;;;;;;;26.07;99.06;100999.69;5019390;28;19913;-71
2023/09/06 08:05:27;;;;;;;;;;;;;;;26.53;96.73;100936.28;5018830;28;19913;-71
2023/09/06 08:07:52;;;;;;;;;;;;;;;26.26;99.69;101052.13;5018002;28;20020;-72
2023/09/06 08:10:18;;;;;;;;;;;;;;;26.48;98.78;101035.63;5016883;28;19920;-71
2023/09/06 08:12:43;;;;;;;;;;;;;;;26.38;99.42;101030.06;5016832;28;20388;-71
2023/09/06 08:15:08;;;;;;;;;;;;;;;26.64;99.13;101060.41;5002092;28;19914;-72
2023/09/06 08:17:34;;;;;;;;;;;;;;;26.51;95.48;100813.34;5019041;28;19924;-73
2023/09/06 08:19:59;;;;;;;;;;;;;;;25.77;98.51;100830.66;4999286;28;19928;-73
2023/09/06 08:22:24;;;;;;;;;;;;;;;26.10;96.59;100791.25;5024773;28;19936;-73
2023/09/06 08:24:49;;;;;;;;;;;;;;;26.38;94.15;100725.44;5018174;28;19920;-73
2023/09/06 08:27:14;;;;;;;;;;;;;;;26.68;93.77;100754.84;5020027;28;19913;-72
2023/09/06 08:29:40;;;;;;;;;;;;;;;26.62;93.08;100703.91;5018380;28;19913;-71
2023/09/06 08:32:05;;;;;;;;;;;;;;;27.38;91.27;100818.28;5017670;28;19932;-71
2023/09/06 08:34:30;;;;;;;;;;;;;;;28.18;88.40;100725.19;5019155;28;20360;-72
2023/09/06 08:36:56;;;;;;;;;;;;;;;28.54;85.85;100650.94;5016142;28;19936;-72
2023/09/06 08:39:21;;;;;;;;;;;;;;;28.94;83.85;100591.25;5020857;28;19921;-71
2023/09/06 08:41:48;;;;;;;;;;;;;;;26.15;89.65;100433.97;5017705;28;19924;-73
2023/09/06 08:44:16;;;;;;;;;;;;;;;27.15;91.56;100845.06;5019418;28;19924;-72
2023/09/06 08:46:42;;;;;;;;;;;;;;;28.01;90.13;100937.94;5008060;28;19917;-73
2023/09/06 08:49:09;;;;;;;;;;;;;;;28.31;85.15;100567.31;5007806;28;19937;-74
2023/09/06 08:51:38;;;;;;;;;;;;;;;27.29;90.12;100741.25;5005477;28;19917;-73
2023/09/06 08:54:05;;;;;;;;;;;;;;;28.24;86.57;100700.47;5012596;28;20019;-73
2023/09/06 08:56:33;;;;;;;;;;;;;;;27.97;85.02;100526.09;5002756;28;19917;-73
2023/09/06 08:58:59;;;;;;;;;;;;;;;27.97;86.99;100690.69;5005747;28;20894;-71
2023/09/06 09:01:24;;;;;;;;;;;;;;;28.52;85.96;100737.44;5006390;28;20015;-73
2023/09/06 09:03:50;;;;;;;;;;;;;;;29.10;84.82;100797.25;5011920;28;20412;-73
2023/09/06 09:06:15;;;;;;;;;;;;;;;28.51;82.19;100368.66;5007547;28;20287;-72
2023/09/06 09:08:40;;;;;;;;;;;;;;;27.94;86.84;100732.44;5014202;28;19917;-73
2023/09/06 09:11:10;;;;;;;;;;;;;;;28.92;84.52;100752.03;5009413;28;19913;-73
2023/09/06 09:13:35;;;;;;;;;;;;;;;29.05;80.72;100416.09;5006935;28;19920;-73
2023/09/06 09:16:05;;;;;;;;;;;;;;;29.36;80.54;100545.78;5004836;28;20004;-71
2023/09/06 09:18:30;;;;;;;;;;;;;;;29.88;79.34;100562.47;5008888;28;20011;-71
2023/09/06 09:20:56;;;;;;;;;;;;;;;30.50;77.53;100568.69;4999311;28;20004;-73
2023/09/06 09:23:22;;;;;;;;;;;;;;;30.97;76.37;100529.34;5007556;28;19918;-73
2023/09/06 09:25:50;;;;;;;;;;;;;;;30.96;75.21;100412.78;4995289;28;19964;-73
2023/09/06 09:28:16;;;;;;;;;;;;;;;31.03;74.26;100399.41;4998447;28;19913;-73
2023/09/06 09:30:41;;;;;;;;;;;;;;;31.13;73.02;100316.47;4996282;28;20373;-71
2023/09/06 09:33:07;;;;;;;;;;;;;;;30.58;73.10;100158.69;5012303;28;19944;-73
2023/09/06 09:35:32;;;;;;;;;;;;;;;30.89;72.86;100261.59;4996285;28;19910;-74
2023/09/06 09:37:59;;;;;;;;;;;;;;;30.68;72.41;100206.13;4994451;28;19913;-73
2023/09/06 09:40:34;;;;;;;;;;;;;;;29.49;72.17;99894.47;4997653;28;19987;-74
2023/09/06 09:43:04;;;;;;;;;;;;;;;28.49;76.78;100120.22;4995671;28;19925;-74
2023/09/06 09:45:38;;;;;;;;;;;;;;;28.37;76.94;100109.66;4987734;28;20012;-75
2023/09/06 09:48:03;;;;;;;;;;;;;;;28.30;80.42;100493.47;5000215;28;19929;-73
2023/09/06 09:50:30;;;;;;;;;;;;;;;29.63;77.93;100555.34;4995321;28;20284;-74
2023/09/06 09:52:56;;;;;;;;;;;;;;;28.99;75.53;100132.34;4993068;28;19917;-73
2023/09/06 09:55:28;;;;;;;;;;;;;;;29.24;75.99;100281.44;4996960;28;19917;-74
2023/09/06 09:57:55;;;;;;;;;;;;;;;29.85;74.58;100294.22;5014100;28;20332;-74
2023/09/06 10:00:27;;;;;;;;;;;;;;;28.70;74.75;99961.44;4998847;28;20075;-73
2023/09/06 10:02:55;;;;;;;;;;;;;;;29.31;75.35;100306.63;4993809;28;20540;-74
2023/09/06 10:05:20;;;;;;;;;;;;;;;29.83;73.18;100174.59;4998501;28;19916;-74
2023/09/06 10:07:47;;;;;;;;;;;;;;;30.19;72.31;100182.13;5009973;28;19913;-73
2023/09/06 10:10:16;;;;;;;;;;;;;;;29.54;71.80;99960.34;4994565;28;19916;-73
2023/09/06 10:12:45;;;;;;;;;;;;;;;30.28;71.50;100167.34;4994288;28;19913;-73
2023/09/06 10:15:13;;;;;;;;;;;;;;;31.27;69.89;100271.47;4995618;28;19925;-74
2023/09/06 10:17:38;;;;;;;;;;;;;;;30.79;68.27;99897.28;4994921;28;19923;-74
2023/09/06 10:20:04;;;;;;;;;;;;;;;30.78;68.45;99970.06;4994479;28;19926;-74
2023/09/06 10:22:31;;;;;;;;;;;;;;;31.04;66.21;99807.59;4995212;28;19917;-74
2023/09/06 10:25:03;;;;;;;;;;;;;;;30.67;65.73;99692.13;4993328;28;19909;-74
2023/09/06 10:27:32;;;;;;;;;;;;;;;30.63;65.83;99751.75;4998421;28;20296;-73
2023/09/06 10:29:58;;;;;;;;;;;;;;;31.00;67.06;100054.66;4993306;28;19916;-73
2023/09/06 10:32:38;;;;;;;;;;;;;;;31.76;65.84;100093.94;5005088;28;19917;-74
2023/09/06 10:35:32;;;;;;;;;;;;;;;31.25;63.90;99691.97;4993167;28;19924;-74
2023/09/06 10:38:10;;;;;;;;;;;;;;;30.31;64.30;99413.53;4955216;28;19914;-73
2023/09/06 10:40:48;;;;;;;;;;;;;;;30.97;63.96;99689.56;4958138;28;20112;-72
2023/09/06 10:43:13;;;;;;;;;;;;;;;31.26;64.99;99927.97;4959024;28;19918;-74
2023/09/06 10:45:40;;;;;;;;;;;;;;;31.02;64.03;99736.25;4952824;28;19913;-74
2023/09/06 10:48:09;;;;;;;;;;;;;;;30.72;63.80;99630.56;4952176;28;19937;-74
2023/09/06 10:50:34;;;;;;;;;;;;;;;30.74;63.92;99669.59;4936890;28;19918;-74
2023/09/06 10:53:02;;;;;;;;;;;;;;;31.58;62.08;99636.28;4952166;28;20409;-73
2023/09/06 10:55:27;;;;;;;;;;;;;;;31.20;60.75;99336.56;4958289;28;19973;-74
2023/09/06 10:57:57;;;;;;;;;;;;;;;31.73;61.71;99716.56;4951659;28;19918;-74
2023/09/06 11:00:25;;;;;;;;;;;;;;;30.90;62.04;99497.16;4954853;28;19925;-74
2023/09/06 11:03:06;;;;;;;;;;;;;;;31.21;61.90;99594.50;4951273;28;19910;-74
2023/09/06 11:05:32;;;;;;;;;;;;;;;31.70;60.64;99553.63;4950929;28;19914;-74
2023/09/06 11:07:57;;;;;;;;;;;;;;;32.32;59.25;99610.91;4950769;28;19914;-74
2023/09/06 11:10:22;;;;;;;;;;;;;;;32.98;58.97;99781.59;4959377;28;20584;-74
2023/09/06 11:12:48;;;;;;;;;;;;;;;33.36;57.17;99602.84;4951771;28;19954;-74
2023/09/06 11:15:13;;;;;;;;;;;;;;;33.22;56.40;99435.31;4996304;28;19917;-75
2023/09/06 11:17:38;;;;;;;;;;;;;;;31.66;57.73;99148.00;5004097;28;19960;-73
2023/09/06 11:20:12;;;;;;;;;;;;;;;30.64;59.40;99081.34;4995406;28;19917;-75
2023/09/06 11:22:37;;;;;;;;;;;;;;;30.32;59.39;99005.84;4993809;28;19920;-73
2023/09/06 11:25:14;;;;;;;;;;;;;;;30.82;59.37;99227.19;5011673;28;19939;-74
2023/09/06 11:27:39;;;;;;;;;;;;;;;31.04;60.24;99463.88;5011851;28;19917;-74
2023/09/06 11:30:15;;;;;;;;;;;;;;;31.98;58.61;99573.31;5016373;28;20399;-74
2023/09/06 11:32:41;;;;;;;;;;;;;;;32.43;57.92;99596.69;5003276;28;19979;-74
2023/09/06 11:35:08;;;;;;;;;;;;;;;33.01;57.02;99658.47;4996073;28;19909;-74
2023/09/06 11:37:37;;;;;;;;;;;;;;;31.60;56.33;98961.03;5004000;28;20033;-76
2023/09/06 11:40:12;;;;;;;;;;;;;;;31.12;58.50;99269.31;5023995;28;19971;-74
2023/09/06 11:42:38;;;;;;;;;;;;;;;31.29;59.19;99456.66;5009460;28;19961;-73
2023/09/06 11:45:06;;;;;;;;;;;;;;;31.34;58.51;99401.31;4996751;28;19960;-74
2023/09/06 11:47:32;;;;;;;;;;;;;;;31.98;57.30;99448.31;4997452;28;20009;-74
2023/09/06 11:49:59;;;;;;;;;;;;;;;31.86;57.94;99437.97;5011262;28;20004;-74
2023/09/06 11:52:24;;;;;;;;;;;;;;;32.32;56.59;99422.34;4995575;28;20375;-73
2023/09/06 11:54:50;;;;;;;;;;;;;;;32.29;57.09;99489.31;4996202;28;19916;-73
2023/09/06 11:57:22;;;;;;;;;;;;;;;30.94;58.13;99130.06;5012251;28;19913;-74
2023/09/06 11:59:50;;;;;;;;;;;;;;;31.47;58.99;99556.69;4999784;28;20262;-73
2023/09/06 12:02:15;;;;;;;;;;;;;;;31.69;57.25;99301.00;4996598;28;19950;-74
2023/09/06 12:04:50;;;;;;;;;;;;;;;30.77;59.56;99335.63;4996672;28;19910;-74
2023/09/06 12:07:15;;;;;;;;;;;;;;;31.81;58.35;99548.56;4996971;28;19960;-74
2023/09/06 12:09:40;;;;;;;;;;;;;;;30.96;58.10;99191.97;5001021;28;19913;-73
2023/09/06 12:12:06;;;;;;;;;;;;;;;30.85;58.64;99232.06;4995899;28;19914;-74
2023/09/06 12:14:32;;;;;;;;;;;;;;;32.32;59.08;99848.41;4997209;28;19920;-74
2023/09/06 12:16:57;;;;;;;;;;;;;;;31.93;56.23;99179.63;4994648;28;19910;-74
2023/09/06 12:19:26;;;;;;;;;;;;;;;31.38;57.30;99163.53;5012846;28;20558;-73
2023/09/06 12:21:51;;;;;;;;;;;;;;;31.20;58.82;99402.72;4995077;28;19913;-74
2023/09/06 12:24:16;;;;;;;;;;;;;;;32.18;57.85;99676.63;5012807;28;19916;-74
2023/09/06 12:26:41;;;;;;;;;;;;;;;32.02;58.61;99657.06;5019647;28;19924;-73
2023/09/06 12:29:07;;;;;;;;;;;;;;;32.45;57.33;99591.66;5010071;28;19912;-74
2023/09/06 12:31:32;;;;;;;;;;;;;;;31.54;58.87;99515.59;5010821;28;20392;-74